Latest Weather Observations for Nambour

IDQ60901

Issued at 5:01 pm EST Wednesday 10 February 2016 (issued every 10 minutes, with the page automatically refreshed every 10 minutes)

About weather observations | Map of Brisbane area stations | Latest observations for Brisbane area | Other Formats
Station Details ID: 040988 Name: NAMBOUR DAFF - HILLSIDE Lat: -26.64 Lon: 152.94 Height: 53.24 m
Data from the previous 72 hours. | See also: Recent months at Nambour
Date/Time
EST
Tmp

°C
App
Tmp
°C
Dew
Point
°C
Rel
Hum
%
Delta-T

°C
Wind Press
QNH
hPa
Press
MSL
hPa
Rain
since
9 am
mm
Dir
 
Spd
km/h
Gust
km/h
Spd
kts
Gust
kts
10/05:00pm 25.1 27.0 18.5 67 4.2 E 6 11 3 6 1012.0 1011.7 0.2
10/04:30pm 25.0 26.8 18.7 68 4.0 SE 7 13 4 7 1011.8 1011.5 0.2
10/04:00pm 24.9 26.6 18.4 67 4.1 ESE 7 19 4 10 1011.7 1011.4 0.2
10/03:30pm 25.2 25.6 18.2 65 4.4 ESE 13 26 7 14 1011.6 1011.3 0.2
10/03:00pm 27.2 27.9 17.1 54 6.3 ESE 9 17 5 9 1011.3 1011.0 0.2
10/02:30pm 27.4 29.1 18.4 58 5.8 ESE 7 17 4 9 1011.4 1011.1 0.2
10/02:00pm 27.0 28.1 18.0 58 5.7 ESE 9 19 5 10 1011.9 1011.6 0.2
10/01:30pm 28.4 29.7 18.5 55 6.4 ESE 9 22 5 12 1011.9 1011.6 0.2
10/01:00pm 27.3 27.4 16.6 52 6.7 E 11 22 6 12 1012.2 1011.9 0.2
10/12:30pm 27.3 28.1 17.2 54 6.3 SE 9 20 5 11 1012.3 1012.0 0.2
10/12:00pm 27.6 29.1 18.0 55 6.1 SE 7 22 4 12 1012.6 1012.3 0.2
10/11:30am 27.3 28.5 18.3 58 5.7 SE 9 19 5 10 1012.8 1012.5 0.2
10/11:00am 26.0 27.4 17.4 59 5.4 SE 6 11 3 6 1013.2 1012.9 0.2
10/10:30am 26.2 27.0 17.3 58 5.6 ESE 9 22 5 12 1013.3 1013.0 0.2
10/10:00am 26.1 27.3 18.2 61 5.0 SE 9 19 5 10 1013.4 1013.1 0.2
10/09:30am 24.8 26.0 17.3 63 4.7 ESE 7 22 4 12 1013.7 1013.4 0.2
10/09:00am 25.0 26.1 17.0 61 5.0 ESE 7 19 4 10 1013.6 1013.3 1.0
10/08:30am 25.2 27.1 17.7 63 4.7 ENE 4 9 2 5 1013.5 1013.2 1.0
10/08:00am 23.3 24.4 16.6 66 4.1 ESE 6 15 3 8 1013.4 1013.1 1.0
10/07:30am 22.9 24.3 16.4 67 4.0 ESE 4 9 2 5 1013.1 1012.8 1.0
10/07:00am 22.7 24.2 16.7 69 3.7 SSW 4 9 2 5 1012.8 1012.5 1.0
10/06:30am 22.3 23.6 16.1 68 3.8 WSW 4 7 2 4 1012.7 1012.4 1.0
10/06:00am 22.1 23.5 16.4 70 3.5 WNW 4 9 2 5 1012.6 1012.3 1.0
10/05:30am 21.9 23.3 16.4 71 3.3 WSW 4 9 2 5 1012.2 1011.9 1.0
10/05:00am 22.0 23.5 16.7 72 3.2 SW 4 9 2 5 1012.1 1011.8 1.0
10/04:30am 22.0 23.7 17.2 74 3.0 SW 4 11 2 6 1011.9 1011.6 1.0
10/04:00am 21.7 23.8 17.1 75 2.8 SW 2 9 1 5 1011.8 1011.5 1.0
10/03:30am 21.8 23.9 17.2 75 2.8 NW 2 6 1 3 1011.8 1011.5 1.0
10/03:00am 21.5 22.7 16.9 75 2.8 SE 6 15 3 8 1011.8 1011.5 1.0
10/02:30am 21.1 23.0 16.7 76 2.7 W 2 6 1 3 1011.9 1011.6 1.0
10/02:00am 21.3 22.9 16.9 76 2.7 W 4 13 2 7 1012.3 1012.0 1.0
10/01:30am 21.2 22.8 16.8 76 2.7 W 4 7 2 4 1012.7 1012.4 1.0
10/01:00am 20.8 22.4 17.0 79 2.3 NNW 4 6 2 3 1013.1 1012.8 1.0
10/12:30am 19.9 22.2 16.7 82 1.9 CALM 0 4 0 2 1013.6 1013.3 1.0
10/12:00am 20.2 22.2 17.0 82 1.9 W 2 6 1 3 1013.9 1013.6 1.0
 
Date/Time
EST
Tmp

°C
App
Tmp
°C
Dew
Point
°C
Rel
Hum
%
Delta-T

°C
Wind Press
QNH
hPa
Press
MSL
hPa
Rain
since
9 am
mm
Dir
 
Spd
km/h
Gust
km/h
Spd
kts
Gust
kts
09/11:30pm 20.4 22.7 17.8 85 1.6 WSW 2 6 1 3 1014.3 1014.0 1.0
09/11:00pm 20.6 22.7 18.2 86 1.5 WSW 4 13 2 7 1014.7 1014.4 1.0
09/10:30pm 20.9 23.4 19.0 89 1.2 SW 4 11 2 6 1015.2 1014.9 1.0
09/10:00pm 20.9 23.6 18.7 87 1.4 SSE 2 7 1 4 1015.7 1015.4 0.4
09/09:30pm 21.7 23.2 17.5 77 2.6 ESE 6 11 3 6 1015.9 1015.6 0.0
09/09:00pm 23.2 25.1 16.7 67 4.0 E 2 6 1 3 1015.7 1015.4 0.0
09/08:30pm 23.2 24.6 16.3 65 4.2 E 4 9 2 5 1015.5 1015.2 0.0
09/08:00pm 23.7 24.6 16.2 63 4.6 E 6 17 3 9 1015.5 1015.2 0.0
09/07:30pm 23.4 24.3 16.2 64 4.4 ESE 6 13 3 7 1015.4 1015.1 0.0
09/07:00pm 23.9 24.5 15.9 61 4.9 ESE 7 17 4 9 1015.1 1014.8 0.0
09/06:30pm 24.5 25.2 15.7 58 5.3 ESE 6 15 3 8 1014.7 1014.4 0.0
09/06:00pm 25.1 25.8 16.0 57 5.6 ESE 7 22 4 12 1014.4 1014.1 0.0
09/05:30pm 25.6 25.5 15.0 52 6.4 ESE 9 19 5 10 1014.0 1013.7 0.0
09/05:00pm 25.8 25.7 14.9 51 6.6 ESE 9 20 5 11 1013.9 1013.6 0.0
09/04:30pm 26.0 25.5 14.8 50 6.7 ESE 11 26 6 14 1013.9 1013.6 0.0
09/04:00pm 26.6 25.7 13.7 45 7.6 E 11 26 6 14 1013.8 1013.5 0.0
09/03:30pm 27.2 27.1 15.9 50 6.9 ESE 11 22 6 12 1013.8 1013.5 0.0
09/03:00pm 27.9 26.4 14.2 43 8.2 ESE 15 35 8 19 1013.8 1013.5 0.0
09/02:30pm 28.0 26.8 13.9 42 8.4 ESE 13 28 7 15 1013.9 1013.6 0.0
09/02:00pm 27.7 26.2 14.3 43 8.0 ESE 15 24 8 13 1014.0 1013.7 0.0
09/01:30pm 27.4 26.7 15.4 48 7.3 ESE 13 24 7 13 1014.3 1014.0 0.0
09/01:00pm 27.9 27.6 16.5 50 7.1 ESE 13 22 7 12 1014.5 1014.2 0.0
09/12:30pm 28.3 28.4 17.5 52 6.8 ESE 13 26 7 14 1014.5 1014.2 0.0
09/12:00pm 25.9 25.5 16.2 55 6.0 ESE 13 22 7 12 1014.7 1014.4 0.0
09/11:30am 26.5 25.8 15.5 50 6.7 ESE 13 24 7 13 1014.8 1014.5 0.0
09/11:00am 26.1 25.9 15.8 53 6.3 SE 11 24 6 13 1015.0 1014.7 0.0
09/10:30am 26.2 27.4 17.3 58 5.6 ESE 7 20 4 11 1015.3 1015.0 0.0
09/10:00am 26.3 28.0 18.4 61 5.0 ESE 7 19 4 10 1015.6 1015.3 0.0
09/09:30am 25.2 26.2 16.4 58 5.4 SE 6 13 3 7 1015.7 1015.4 0.0
09/09:00am 24.9 26.0 16.6 60 5.1 ESE 6 17 3 9 1015.5 1015.2 0.0
09/08:30am 25.2 26.6 17.4 62 4.9 SE 6 15 3 8 1015.5 1015.2 0.0
09/08:00am 23.8 24.7 16.6 64 4.4 S 7 17 4 9 1015.5 1015.2 0.0
09/07:30am 24.4 25.4 16.4 61 4.9 NNW 6 9 3 5 1015.3 1015.0 0.0
09/07:00am 22.7 23.8 15.5 64 4.3 E 4 11 2 6 1015.1 1014.8 0.0
09/06:30am 22.7 23.9 15.8 65 4.2 ESE 4 9 2 5 1014.8 1014.5 0.0
09/06:00am 22.3 22.9 15.4 65 4.1 ESE 6 11 3 6 1014.5 1014.2 0.0
09/05:30am 22.2 23.2 15.3 65 4.1 N 4 7 2 4 1014.2 1013.9 0.0
09/05:00am 21.9 23.0 15.5 67 3.8 E 4 13 2 7 1013.8 1013.5 0.0
09/04:30am 22.1 23.2 15.7 67 3.8 W 4 9 2 5 1013.5 1013.2 0.0
09/04:00am 21.9 23.4 15.7 68 3.7 NNW 2 7 1 4 1013.4 1013.1 0.0
09/03:30am 21.7 23.1 15.5 68 3.7 SSE 2 6 1 3 1013.4 1013.1 0.0
09/03:00am 21.8 23.0 15.9 69 3.6 W 4 9 2 5 1013.3 1013.0 0.0
09/02:30am 22.0 23.7 16.1 69 3.6 WNW 2 6 1 3 1013.5 1013.2 0.0
09/02:00am 22.1 24.0 16.6 71 3.4 ENE 2 7 1 4 1013.7 1013.4 0.0
09/01:30am 22.5 23.9 16.5 69 3.7 E 4 13 2 7 1013.8 1013.5 0.0
09/01:00am 22.3 23.8 16.6 70 3.5 SSE 4 11 2 6 1013.9 1013.6 0.0
09/12:30am 22.4 23.9 16.7 70 3.5 S 4 7 2 4 1014.4 1014.1 0.0
09/12:00am 22.4 24.2 16.4 69 3.6 SW 2 11 1 6 1014.6 1014.3 0.0
 
Date/Time
EST
Tmp

°C
App
Tmp
°C
Dew
Point
°C
Rel
Hum
%
Delta-T

°C
Wind Press
QNH
hPa
Press
MSL
hPa
Rain
since
9 am
mm
Dir
 
Spd
km/h
Gust
km/h
Spd
kts
Gust
kts
08/11:30pm 23.0 25.1 17.2 70 3.6 SW 2 7 1 4 1014.9 1014.6 0.0
08/11:00pm 22.5 25.2 17.8 75 2.9 CALM 0 4 0 2 1015.2 1014.9 0.0
08/10:30pm 22.3 24.6 17.7 75 2.9 SE 2 4 1 2 1015.3 1015.0 0.0
08/10:00pm 22.5 24.8 17.6 74 3.0 SSE 2 7 1 4 1015.2 1014.9 0.0
08/09:30pm 22.4 24.8 18.0 76 2.7 WSW 2 6 1 3 1015.2 1014.9 0.0
08/09:00pm 22.9 25.4 18.2 75 2.9 WSW 2 9 1 5 1015.4 1015.1 0.0
08/08:30pm 23.1 25.5 18.0 73 3.2 SW 2 6 1 3 1015.3 1015.0 0.0
08/08:00pm 23.3 26.1 18.0 72 3.3 CALM 0 4 0 2 1014.9 1014.6 0.0
08/07:30pm 23.3 25.9 17.5 70 3.6 CALM 0 2 0 1 1014.6 1014.3 0.0
08/07:00pm 24.1 26.3 17.4 66 4.2 ESE 2 6 1 3 1014.2 1013.9 0.0
08/06:30pm 24.7 26.4 17.2 63 4.7 ESE 4 9 2 5 1014.0 1013.7 0.0
08/06:00pm 25.3 26.4 16.7 59 5.3 ESE 6 9 3 5 1013.6 1013.3 0.0
08/05:30pm 25.9 26.8 16.5 56 5.8 ESE 7 13 4 7 1013.2 1012.9 0.0
08/05:00pm 26.0 26.0 16.3 55 6.0 ESE 11 24 6 13 1012.9 1012.6 0.0
08/04:30pm 27.3 27.8 16.6 52 6.7 ESE 9 15 5 8 1012.8 1012.5 0.0
08/04:00pm 27.3 28.3 16.9 53 6.5 ESE 7 13 4 7 1012.8 1012.5 0.0
08/03:30pm 26.9 27.4 16.5 53 6.4 ESE 9 20 5 11 1013.0 1012.7 0.0
08/03:00pm 26.9 27.4 17.4 56 6.0 ESE 11 19 6 10 1013.2 1012.9 0.0
08/02:30pm 26.7 26.2 16.9 55 6.1 ESE 15 24 8 13 1013.4 1013.1 0.0
08/02:00pm 26.7 27.3 17.8 58 5.6 ESE 11 19 6 10 1013.7 1013.4 0.0
08/01:30pm 28.2 28.3 16.5 49 7.3 E 11 20 6 11 1013.8 1013.5 0.0
08/01:00pm 27.4 27.6 14.8 46 7.6 ESE 7 15 4 8 1014.0 1013.7 0.0
08/12:30pm 28.6 29.5 16.2 47 7.7 W 6 13 3 7 1014.3 1014.0 0.0
08/12:00pm 27.7 28.1 15.4 47 7.5 SE 7 19 4 10 1014.5 1014.2 0.0
08/11:30am 27.5 27.9 15.2 47 7.5 SE 7 17 4 9 1014.7 1014.4 0.0
08/11:00am 26.7 27.1 15.4 50 6.9 ESE 7 17 4 9 1015.1 1014.8 0.0
08/10:30am 26.6 26.6 16.2 52 6.4 ESE 11 24 6 13 1015.2 1014.9 0.0
08/10:00am 25.6 26.3 16.2 56 5.8 E 7 20 4 11 1015.6 1015.3 0.0
08/09:30am 25.6 26.9 17.0 59 5.3 SE 6 15 3 8 1015.7 1015.4 0.0
08/09:00am 25.2 26.4 16.9 60 5.1 SE 6 13 3 7 1015.6 1015.3 1.0
08/08:30am 24.9 25.8 16.6 60 5.1 SE 7 17 4 9 1015.7 1015.4 1.0
08/08:00am 24.4 25.4 16.4 61 4.9 SE 6 13 3 7 1015.6 1015.3 1.0
08/07:30am 23.8 24.7 16.1 62 4.7 SE 6 13 3 7 1015.4 1015.1 0.8
08/07:00am 22.6 23.6 15.4 64 4.3 WNW 4 11 2 6 1015.1 1014.8 0.8
08/06:30am 22.9 24.5 16.0 65 4.2 SSE 2 9 1 5 1015.0 1014.7 0.8
08/06:00am 21.7 22.8 15.5 68 3.7 WNW 4 6 2 3 1014.9 1014.6 0.8
08/05:30am 21.6 22.6 15.4 68 3.7 ENE 4 9 2 5 1014.2 1013.9 0.8
08/05:00am 21.4 22.5 15.5 69 3.5 W 4 9 2 5 1013.9 1013.6 0.8
08/04:30am 21.6 22.7 15.7 69 3.5 E 4 9 2 5 1013.9 1013.6 0.8
08/04:00am 21.6 23.3 16.1 71 3.3 WNW 2 11 1 6 1014.0 1013.7 0.8
08/03:30am 21.3 22.9 16.0 72 3.2 NE 2 6 1 3 1014.2 1013.9 0.8
08/03:00am 21.4 23.0 15.9 71 3.3 SW 2 4 1 2 1014.2 1013.9 0.8
08/02:30am 21.6 23.2 15.9 70 3.4 WSW 2 6 1 3 1014.3 1014.0 0.8
08/02:00am 22.0 23.7 16.3 70 3.5 WSW 2 7 1 4 1014.3 1014.0 0.8
08/01:30am 22.0 23.8 16.5 71 3.3 E 2 9 1 5 1014.3 1014.0 0.8
08/01:00am 22.1 24.0 16.8 72 3.2 NW 2 6 1 3 1014.5 1014.2 0.8
08/12:30am 22.3 24.1 17.4 74 3.0 ENE 4 13 2 7 1014.8 1014.5 0.8
08/12:00am 22.6 25.0 17.9 75 2.9 WSW 2 6 1 3 1015.2 1014.9 0.8
 
Date/Time
EST
Tmp

°C
App
Tmp
°C
Dew
Point
°C
Rel
Hum
%
Delta-T

°C
Wind Press
QNH
hPa
Press
MSL
hPa
Rain
since
9 am
mm
Dir
 
Spd
km/h
Gust
km/h
Spd
kts
Gust
kts
07/11:30pm 22.8 25.3 18.1 75 2.9 SSW 2 6 1 3 1015.3 1015.0 0.8
07/11:00pm 22.6 25.5 18.2 76 2.8 CALM 0 2 0 1 1015.5 1015.2 0.8
07/10:30pm 22.5 25.1 18.3 77 2.6 W 2 4 1 2 1015.4 1015.1 0.8
07/10:00pm 22.4 25.3 18.2 77 2.6 CALM 0 0 0 0 1015.2 1014.9 0.8
07/09:30pm 22.6 25.5 18.2 76 2.8 CALM 0 4 0 2 1015.1 1014.8 0.8
07/09:00pm 22.7 25.5 18.0 75 2.9 CALM 0 4 0 2 1015.1 1014.8 0.8
07/08:30pm 22.6 24.6 17.9 75 2.9 WSW 4 6 2 3 1014.9 1014.6 0.8
07/08:00pm 22.9 25.3 18.0 74 3.1 E 2 6 1 3 1014.6 1014.3 0.8
07/07:30pm 23.0 25.2 18.3 75 3.0 E 4 9 2 5 1014.4 1014.1 0.8
07/07:00pm 22.8 25.7 18.3 76 2.8 CALM 0 4 0 2 1014.3 1014.0 0.8
07/06:30pm 23.4 26.1 18.7 75 3.0 SSE 2 6 1 3 1013.9 1013.6 0.8
07/06:00pm 23.7 26.6 19.0 75 3.0 SE 2 6 1 3 1013.6 1013.3 0.8
07/05:30pm 23.5 26.5 19.2 77 2.7 E 2 9 1 5 1013.3 1013.0 0.8

Latest Capital City Observations: Canberra | Sydney | Melbourne | Brisbane | Adelaide | Perth | Hobart | Darwin

Other Formats:

Comma delimited format used in spreadsheet applications
http://www.bom.gov.au/fwo/IDQ60901/IDQ60901.95572.axf

JavaScript Object Notation format (JSON) in row-major order
http://www.bom.gov.au/fwo/IDQ60901/IDQ60901.95572.json